Time;durP1;ratioP1;P1;durP2;ratioP2;P2;SDS_P1;SDS_P2;PMS_P1;PMS_P2;Temp;Humidity;BMP_temperature;BMP_pressure;BME280_temperature;BME280_humidity;BME280_pressure;Samples;Min_cycle;Max_cycle;Signal;HPM_P1;HPM_P2
2023/03/10 00:00:17;;;;;;;7.65;1.63;;;;;;;1.15;100.00;99280.06;5063060;28;20117;-84
2023/03/10 00:02:48;;;;;;;14.77;2.08;;;;;;;1.07;100.00;99285.41;5073842;28;20049;-84
2023/03/10 00:05:16;;;;;;;3.75;1.50;;;;;;;1.37;100.00;99331.19;5077594;28;20487;-83
2023/03/10 00:07:43;;;;;;;8.77;1.48;;;;;;;1.24;100.00;99299.66;5059992;28;20055;-84
2023/03/10 00:10:12;;;;;;;6.25;1.50;;;;;;;1.48;100.00;99342.09;5072906;28;20402;-83
2023/03/10 00:12:39;;;;;;;5.85;1.60;;;;;;;1.49;100.00;99334.34;5082416;28;20055;-84
2023/03/10 00:15:07;;;;;;;5.68;1.30;;;;;;;1.58;100.00;99337.59;5077292;28;20049;-83
2023/03/10 00:17:34;;;;;;;5.80;1.92;;;;;;;1.11;100.00;99268.16;5055597;28;20098;-84
2023/03/10 00:20:06;;;;;;;8.20;1.88;;;;;;;1.49;100.00;99352.41;5077017;28;20401;-84
2023/03/10 00:22:34;;;;;;;5.57;1.77;;;;;;;1.12;100.00;99306.78;5059892;28;20045;-84
2023/03/10 00:25:01;;;;;;;8.57;1.92;;;;;;;1.07;100.00;99290.56;5059629;28;20052;-84
2023/03/10 00:27:28;;;;;;;4.63;1.70;;;;;;;1.23;100.00;99314.28;5068804;28;20041;-84
2023/03/10 00:29:55;;;;;;;7.63;2.03;;;;;;;1.17;100.00;99322.16;5054747;28;20060;-84
2023/03/10 00:32:21;;;;;;;5.00;1.73;;;;;;;0.86;100.00;99273.00;5069518;28;20173;-84
2023/03/10 00:34:48;;;;;;;6.00;1.77;;;;;;;1.23;100.00;99310.88;5056968;28;20076;-85
2023/03/10 00:37:15;;;;;;;5.65;1.45;;;;;;;1.55;100.00;99333.34;5071522;28;20067;-83
2023/03/10 00:39:42;;;;;;;7.75;1.70;;;;;;;1.20;100.00;99275.66;5068324;28;20044;-83
2023/03/10 00:42:09;;;;;;;5.68;1.58;;;;;;;1.33;100.00;99326.09;5071147;28;20048;-83
2023/03/10 00:44:35;;;;;;;6.53;1.92;;;;;;;1.15;100.00;99326.50;5069294;28;20052;-83
2023/03/10 00:47:02;;;;;;;6.03;2.08;;;;;;;0.84;100.00;99305.69;5064609;28;20045;-83
2023/03/10 00:49:29;;;;;;;5.72;1.60;;;;;;;0.98;100.00;99320.88;5058174;28;20769;-83
2023/03/10 00:51:56;;;;;;;10.88;1.92;;;;;;;0.67;100.00;99281.09;5070869;28;20055;-83
2023/03/10 00:54:22;;;;;;;7.30;1.98;;;;;;;0.83;100.00;99297.09;5060812;28;20060;-83
2023/03/10 00:56:49;;;;;;;6.80;1.80;;;;;;;0.82;100.00;99303.13;5093198;28;20090;-83
2023/03/10 00:59:16;;;;;;;5.55;2.22;;;;;;;0.72;100.00;99314.50;5075896;28;20051;-84
2023/03/10 01:01:43;;;;;;;7.22;1.80;;;;;;;1.03;100.00;99332.78;5075831;28;20052;-83
2023/03/10 01:04:13;;;;;;;3.08;1.20;;;;;;;1.14;100.00;99302.44;5054160;28;20048;-83
2023/03/10 01:06:41;;;;;;;4.20;1.60;;;;;;;1.14;100.00;99312.75;5075969;28;20085;-83
2023/03/10 01:09:07;;;;;;;10.63;2.00;;;;;;;1.31;100.00;99338.19;5055758;28;20044;-84
2023/03/10 01:11:35;;;;;;;5.18;1.30;;;;;;;1.52;100.00;99344.59;5059093;28;20053;-83
2023/03/10 01:14:04;;;;;;;6.45;1.98;;;;;;;1.45;100.00;99352.47;5054160;28;20059;-83
2023/03/10 01:16:31;;;;;;;2.92;1.20;;;;;;;1.35;100.00;99322.63;5072409;28;20056;-83
2023/03/10 01:18:59;;;;;;;5.00;1.77;;;;;;;1.18;100.00;99312.69;5067683;28;20056;-84
2023/03/10 01:21:29;;;;;;;6.53;1.75;;;;;;;1.50;100.00;99360.97;5079800;28;20052;-84
2023/03/10 01:23:56;;;;;;;7.47;1.77;;;;;;;1.27;100.00;99297.84;5057571;28;20406;-84
2023/03/10 01:26:23;;;;;;;3.42;1.50;;;;;;;1.17;100.00;99300.69;5057469;28;20044;-84
2023/03/10 01:28:50;;;;;;;9.20;2.15;;;;;;;1.30;100.00;99322.75;5054322;28;20136;-83
2023/03/10 01:31:17;;;;;;;5.00;1.55;;;;;;;1.02;100.00;99301.88;5061851;28;20047;-84
2023/03/10 01:33:44;;;;;;;4.50;1.83;;;;;;;1.36;100.00;99355.28;5065034;28;20043;-84
2023/03/10 01:36:21;;;;;;;3.05;1.30;;;;;;;1.25;100.00;99327.97;5090867;28;20075;-83
2023/03/10 01:38:48;;;;;;;4.68;1.58;;;;;;;0.90;100.00;99359.66;5073687;28;20485;-84
2023/03/10 01:41:16;;;;;;;7.20;1.45;;;;;;;0.68;100.00;99336.06;5065821;28;20047;-83
2023/03/10 01:43:49;;;;;;;7.90;1.80;;;;;;;0.81;100.00;99359.84;5071299;28;20076;-84
2023/03/10 01:46:39;;;;;;;16.20;4.80;;;;;;;0.73;100.00;99342.81;5072839;28;20036;-83
2023/03/10 01:49:50;;;;;;;6.10;2.05;;;;;;;0.98;100.00;99372.41;5054433;28;20066;-84
2023/03/10 01:52:22;;;;;;;7.45;2.65;;;;;;;0.88;100.00;99351.97;5031754;28;20069;-84
2023/03/10 01:55:14;;;;;;;5.70;1.70;;;;;;;0.47;100.00;99321.88;5055441;28;20497;-85
2023/03/10 01:57:46;;;;;;;9.02;2.13;;;;;;;0.53;100.00;99329.47;5059980;28;20417;-84
2023/03/10 02:00:15;;;;;;;4.22;1.63;;;;;;;1.01;100.00;99367.19;5081192;28;20056;-83
2023/03/10 02:02:46;;;;;;;5.85;1.77;;;;;;;0.52;100.00;99323.47;5070698;28;20048;-84
2023/03/10 02:05:14;;;;;;;9.70;1.80;;;;;;;0.50;100.00;99332.13;5053993;28;20057;-83
2023/03/10 02:07:42;;;;;;;4.82;1.50;;;;;;;0.37;100.00;99314.31;5066175;28;20056;-83
2023/03/10 02:10:12;;;;;;;8.82;1.98;;;;;;;0.38;100.00;99317.75;5076647;28;20048;-84
2023/03/10 02:12:39;;;;;;;6.03;1.70;;;;;;;0.67;100.00;99353.22;5071910;28;20053;-84
2023/03/10 02:15:07;;;;;;;5.13;1.70;;;;;;;0.75;100.00;99371.97;5071501;28;20056;-84
2023/03/10 02:17:34;;;;;;;8.77;1.65;;;;;;;0.37;100.00;99298.88;5054263;28;20041;-84
2023/03/10 02:20:11;;;;;;;3.55;1.50;;;;;;;0.88;100.00;99371.75;5067482;28;20054;-84
2023/03/10 02:22:38;;;;;;;3.30;1.40;;;;;;;0.77;100.00;99356.50;5070978;28;20398;-85
2023/03/10 02:25:48;;;;;;;7.00;1.80;;;;;;;0.36;100.00;99301.47;5067465;28;20048;-84
2023/03/10 02:28:16;;;;;;;4.43;1.70;;;;;;;0.68;100.00;99344.63;5060205;28;20055;-86
2023/03/10 02:30:47;;;;;;;5.50;1.30;;;;;;;0.57;100.00;99346.59;5085839;28;20045;-86
2023/03/10 02:33:22;;;;;;;7.18;2.05;;;;;;;0.85;100.00;99371.78;5079702;28;20044;-84
2023/03/10 02:35:49;;;;;;;3.72;1.50;;;;;;;0.45;100.00;99314.19;5072050;28;20040;-84
2023/03/10 02:38:16;;;;;;;4.47;1.70;;;;;;;0.59;100.00;99336.25;5091376;28;20381;-86
2023/03/10 02:40:43;;;;;;;5.88;2.70;;;;;;;0.74;100.00;99372.00;5076933;28;20056;-84
2023/03/10 02:43:13;;;;;;;9.82;1.52;;;;;;;0.83;100.00;99371.81;5070783;28;20051;-84
2023/03/10 02:45:43;;;;;;;3.92;1.38;;;;;;;0.50;100.00;99352.72;5091265;28;20052;-84
2023/03/10 02:48:13;;;;;;;5.30;1.60;;;;;;;0.65;100.00;99375.59;5079536;28;20040;-86
2023/03/10 02:50:42;;;;;;;6.85;1.60;;;;;;;0.37;100.00;99345.22;5058468;28;20043;-86
2023/03/10 02:53:19;;;;;;;6.50;1.90;;;;;;;0.62;100.00;99374.81;5073373;28;20044;-86
2023/03/10 02:55:47;;;;;;;6.38;1.80;;;;;;;0.72;100.00;99407.25;5061472;28;20060;-86
2023/03/10 02:58:14;;;;;;;4.18;1.38;;;;;;;0.70;100.00;99401.28;5057811;28;20048;-86
2023/03/10 03:00:44;;;;;;;6.20;1.50;;;;;;;0.81;100.00;99390.78;5069558;28;20055;-86
2023/03/10 03:03:14;;;;;;;5.57;1.65;;;;;;;0.53;100.00;99361.25;5073784;28;20468;-86
2023/03/10 03:05:41;;;;;;;2.47;1.20;;;;;;;0.68;100.00;99357.50;5066711;28;20052;-86
2023/03/10 03:08:08;;;;;;;5.30;1.30;;;;;;;0.78;100.00;99363.34;5064977;28;20497;-83
2023/03/10 03:10:36;;;;;;;3.38;1.20;;;;;;;1.12;100.00;99388.44;5081630;28;20100;-84
2023/03/10 03:13:04;;;;;;;3.38;1.30;;;;;;;1.02;100.00;99381.78;5072587;28;20045;-86
2023/03/10 03:15:31;;;;;;;2.92;1.10;;;;;;;1.03;100.00;99360.28;5088291;28;20045;-86
2023/03/10 03:17:59;;;;;;;2.22;1.17;;;;;;;0.68;100.00;99354.94;5062375;28;20493;-85
2023/03/10 03:20:27;;;;;;;2.53;1.30;;;;;;;0.79;100.00;99389.97;5073503;28;20063;-84
2023/03/10 03:22:55;;;;;;;5.30;1.90;;;;;;;0.69;100.00;99397.00;5068476;28;20661;-84
2023/03/10 03:25:24;;;;;;;4.47;1.70;;;;;;;0.92;100.00;99410.31;5063279;28;20482;-84
2023/03/10 03:27:51;;;;;;;2.65;1.25;;;;;;;0.71;100.00;99410.72;5062472;28;20044;-86
2023/03/10 03:30:24;;;;;;;3.92;1.55;;;;;;;0.84;100.00;99411.34;5072189;28;20048;-84
2023/03/10 03:32:52;;;;;;;2.92;1.42;;;;;;;0.57;100.00;99408.41;5059294;28;20417;-84
2023/03/10 03:35:27;;;;;;;5.70;1.70;;;;;;;0.47;100.00;99376.78;5068371;28;20055;-84
2023/03/10 03:37:55;;;;;;;3.80;1.55;;;;;;;0.71;100.00;99415.88;5075968;28;20097;-84
2023/03/10 03:40:23;;;;;;;8.00;1.40;;;;;;;0.60;100.00;99395.44;5074184;28;20048;-84
2023/03/10 03:42:52;;;;;;;6.15;1.70;;;;;;;0.32;100.00;99338.44;5074205;28;20055;-84
2023/03/10 03:45:22;;;;;;;2.75;1.27;;;;;;;0.63;100.00;99368.78;5074751;28;20043;-84
2023/03/10 03:47:49;;;;;;;3.75;1.50;;;;;;;0.54;100.00;99362.09;5066744;28;20071;-83
2023/03/10 03:50:18;;;;;;;5.85;1.73;;;;;;;0.90;100.00;99414.66;5080080;28;20048;-83
2023/03/10 03:52:46;;;;;;;6.75;1.70;;;;;;;0.73;100.00;99404.66;5072616;28;20047;-84
2023/03/10 03:55:15;;;;;;;5.07;1.67;;;;;;;0.67;100.00;99399.59;5061024;28;20135;-84
2023/03/10 03:57:43;;;;;;;3.10;1.48;;;;;;;0.59;100.00;99391.19;5058491;28;20450;-84
2023/03/10 04:00:15;;;;;;;5.53;1.60;;;;;;;0.78;100.00;99419.16;5069378;28;20562;-84
2023/03/10 04:02:42;;;;;;;7.15;1.67;;;;;;;0.58;100.00;99404.94;5056455;28;20048;-84
2023/03/10 04:05:09;;;;;;;2.50;1.10;;;;;;;0.47;100.00;99407.69;5080586;28;20060;-84
2023/03/10 04:07:38;;;;;;;4.43;1.80;;;;;;;0.02;100.00;99378.44;5055529;28;20048;-84
2023/03/10 04:10:07;;;;;;;5.78;1.67;;;;;;;-0.18;100.00;99369.31;5076002;28;20048;-85
2023/03/10 04:12:34;;;;;;;4.50;1.67;;;;;;;0.10;100.00;99410.88;5083649;28;20470;-85
2023/03/10 04:15:01;;;;;;;6.63;1.80;;;;;;;0.43;100.00;99439.53;5064782;28;20051;-84
2023/03/10 04:17:27;;;;;;;4.63;1.58;;;;;;;0.18;100.00;99418.50;5084821;28;20376;-84
2023/03/10 04:19:54;;;;;;;6.00;1.90;;;;;;;0.28;100.00;99426.91;5079799;28;20052;-85
2023/03/10 04:22:32;;;;;;;4.47;2.65;;;;;;;0.37;100.00;99434.47;5062286;28;20048;-85
2023/03/10 04:24:59;;;;;;;3.47;1.40;;;;;;;0.41;100.00;99424.97;5075661;28;20052;-85
2023/03/10 04:27:25;;;;;;;4.30;1.40;;;;;;;0.04;100.00;99376.72;5061507;28;20119;-85
2023/03/10 04:29:52;;;;;;;4.85;1.70;;;;;;;-0.11;100.00;99393.22;5074652;28;20044;-85
2023/03/10 04:32:19;;;;;;;4.72;1.60;;;;;;;0.13;100.00;99385.09;5091864;28;20047;-85
2023/03/10 04:34:45;;;;;;;4.45;1.52;;;;;;;0.29;100.00;99419.16;5070188;28;20048;-84
2023/03/10 04:37:12;;;;;;;4.32;1.60;;;;;;;0.46;100.00;99449.81;5074422;28;20044;-85
2023/03/10 04:39:39;;;;;;;4.35;1.50;;;;;;;0.39;100.00;99427.59;5073317;28;20048;-85
2023/03/10 04:42:06;;;;;;;5.72;3.05;;;;;;;0.20;100.00;99396.16;5088511;28;20051;-85
2023/03/10 04:44:33;;;;;;;10.38;1.52;;;;;;;0.25;100.00;99417.53;5074724;28;20113;-84
2023/03/10 04:47:00;;;;;;;7.63;1.73;;;;;;;0.41;100.00;99451.59;5060624;28;20635;-85
2023/03/10 04:49:28;;;;;;;14.02;4.30;;;;;;;0.47;100.00;99450.63;5065096;28;20765;-85
2023/03/10 04:51:55;;;;;;;5.97;1.60;;;;;;;0.02;100.00;99389.59;5059653;28;20101;-84
2023/03/10 04:54:21;;;;;;;5.03;1.70;;;;;;;0.24;100.00;99404.69;5074619;28;20059;-85
2023/03/10 04:56:48;;;;;;;5.72;1.75;;;;;;;-0.09;100.00;99382.06;5060895;28;20048;-84
2023/03/10 04:59:15;;;;;;;5.65;1.92;;;;;;;0.27;100.00;99417.50;5069680;28;20056;-84
2023/03/10 05:01:42;;;;;;;5.13;1.75;;;;;;;0.60;100.00;99464.16;5060634;28;20494;-84
2023/03/10 05:04:09;;;;;;;5.35;1.60;;;;;;;0.65;100.00;99449.47;5053822;28;20399;-84
2023/03/10 05:06:36;;;;;;;3.25;1.40;;;;;;;0.41;100.00;99440.44;5080697;28;20466;-84
2023/03/10 05:09:03;;;;;;;5.03;1.92;;;;;;;0.39;100.00;99414.72;5081853;28;20052;-84
2023/03/10 05:11:31;;;;;;;3.28;1.50;;;;;;;0.57;100.00;99453.03;5073725;28;20056;-84
2023/03/10 05:13:58;;;;;;;5.50;1.60;;;;;;;0.55;100.00;99459.94;5070731;28;20131;-84
2023/03/10 05:16:25;;;;;;;2.92;1.33;;;;;;;0.45;100.00;99434.38;5056811;28;20509;-84
2023/03/10 05:18:52;;;;;;;5.95;1.40;;;;;;;0.59;100.00;99450.44;5056974;28;20044;-84
2023/03/10 05:21:20;;;;;;;4.47;1.48;;;;;;;0.36;100.00;99414.78;5064307;28;20383;-83
2023/03/10 05:23:48;;;;;;;3.45;1.33;;;;;;;0.48;100.00;99430.00;5072892;28;20048;-85
2023/03/10 05:26:16;;;;;;;4.05;1.35;;;;;;;0.61;100.00;99458.97;5065875;28;20503;-84
2023/03/10 05:28:42;;;;;;;4.45;1.85;;;;;;;0.33;100.00;99401.94;5090858;28;20055;-84
2023/03/10 05:31:15;;;;;;;8.25;1.77;;;;;;;0.64;100.00;99476.09;5057468;28;20086;-87
2023/03/10 05:33:42;;;;;;;2.95;1.48;;;;;;;0.65;100.00;99472.66;5079209;28;20048;-86
2023/03/10 05:36:12;;;;;;;5.82;1.60;;;;;;;0.69;100.00;99477.75;5070815;28;20047;-85
2023/03/10 05:38:40;;;;;;;3.85;1.48;;;;;;;0.29;100.00;99426.91;5084444;28;20044;-85
2023/03/10 05:41:08;;;;;;;4.78;1.60;;;;;;;0.45;100.00;99473.00;5075558;28;20448;-85
2023/03/10 05:43:37;;;;;;;6.50;1.65;;;;;;;0.35;100.00;99474.84;5064871;28;20379;-84
2023/03/10 05:46:04;;;;;;;5.95;1.45;;;;;;;0.48;100.00;99478.94;5071195;28;20119;-85
2023/03/10 05:48:31;;;;;;;6.78;1.60;;;;;;;0.15;100.00;99441.72;5071741;28;20059;-85
2023/03/10 05:51:04;;;;;;;5.35;1.67;;;;;;;0.36;100.00;99492.03;5080238;28;20053;-84
2023/03/10 05:53:32;;;;;;;4.45;1.50;;;;;;;0.18;100.00;99451.97;5054136;28;20478;-84
2023/03/10 05:55:59;;;;;;;3.78;1.48;;;;;;;0.20;100.00;99472.53;5064207;28;20051;-85
2023/03/10 05:58:26;;;;;;;7.95;2.03;;;;;;;0.23;100.00;99482.78;5058208;28;20402;-86
2023/03/10 06:00:53;;;;;;;7.10;2.58;;;;;;;0.20;100.00;99468.25;5074963;28;20114;-85
2023/03/10 06:03:22;;;;;;;6.03;2.20;;;;;;;0.49;100.00;99514.13;5067903;28;20055;-85
2023/03/10 06:05:49;;;;;;;3.38;1.33;;;;;;;0.45;100.00;99515.03;5067396;28;20075;-85
2023/03/10 06:08:16;;;;;;;7.07;1.55;;;;;;;0.18;100.00;99457.97;5076916;28;20044;-86
2023/03/10 06:10:43;;;;;;;4.97;2.00;;;;;;;0.10;100.00;99456.38;5072260;28;20841;-85
2023/03/10 06:13:10;;;;;;;6.60;1.48;;;;;;;0.33;100.00;99528.94;5073656;28;20058;-85
2023/03/10 06:15:37;;;;;;;6.10;1.60;;;;;;;0.29;100.00;99518.75;5056857;28;20045;-85
2023/03/10 06:18:03;;;;;;;3.85;1.60;;;;;;;0.20;100.00;99495.72;5063545;28;20044;-84
2023/03/10 06:20:30;;;;;;;7.05;1.85;;;;;;;-0.28;100.00;99437.22;5069800;28;20082;-85
2023/03/10 06:22:57;;;;;;;3.85;1.50;;;;;;;-0.26;100.00;99440.63;5055540;28;20056;-83
2023/03/10 06:25:24;;;;;;;3.83;1.50;;;;;;;-0.05;100.00;99472.91;5089185;28;20044;-84
2023/03/10 06:27:51;;;;;;;5.50;1.50;;;;;;;0.09;100.00;99485.56;5067607;28;20052;-85
2023/03/10 06:30:17;;;;;;;6.32;1.40;;;;;;;0.12;100.00;99488.09;5065930;28;20391;-85
2023/03/10 06:32:44;;;;;;;3.50;1.42;;;;;;;-0.18;100.00;99449.06;5059292;28;20046;-85
2023/03/10 06:35:13;;;;;;;3.88;1.40;;;;;;;0.18;100.00;99506.88;5064716;28;20052;-84
2023/03/10 06:37:40;;;;;;;5.90;1.70;;;;;;;0.28;100.00;99537.63;5071132;28;20047;-85
2023/03/10 06:40:11;;;;;;;4.40;1.40;;;;;;;-0.18;100.00;99461.09;5077125;28;20660;-85
2023/03/10 06:42:40;;;;;;;4.15;1.40;;;;;;;0.10;100.00;99506.13;5063357;28;20057;-85
2023/03/10 06:45:08;;;;;;;3.85;1.30;;;;;;;0.18;100.00;99524.88;5070383;28;20406;-85
2023/03/10 06:47:35;;;;;;;4.95;1.33;;;;;;;0.09;100.00;99535.31;5089509;28;20045;-84
2023/03/10 06:50:03;;;;;;;7.53;1.67;;;;;;;-0.01;100.00;99524.28;5065767;28;20486;-84
2023/03/10 06:52:34;;;;;;;3.53;1.30;;;;;;;0.02;100.00;99543.13;5068400;28;20056;-85
2023/03/10 06:55:01;;;;;;;5.60;1.30;;;;;;;-0.33;100.00;99488.72;5082184;28;20048;-85
2023/03/10 06:57:28;;;;;;;4.15;1.45;;;;;;;-0.30;100.00;99514.41;5071334;28;20047;-84
2023/03/10 06:59:54;;;;;;;2.45;1.30;;;;;;;-0.17;100.00;99529.69;5069725;28;20063;-85
2023/03/10 07:02:21;;;;;;;2.45;1.52;;;;;;;-0.10;100.00;99550.16;5082345;28;20482;-86
2023/03/10 07:04:48;;;;;;;7.07;1.80;;;;;;;-0.29;100.00;99526.38;5090650;28;20040;-86
2023/03/10 07:07:15;;;;;;;5.00;1.60;;;;;;;-0.36;100.00;99513.63;5086103;28;20047;-86
2023/03/10 07:09:41;;;;;;;4.75;1.60;;;;;;;-0.32;100.00;99536.72;5067918;28;20048;-87
2023/03/10 07:12:08;;;;;;;3.55;1.48;;;;;;;-0.50;100.00;99488.91;5063984;28;20521;-85
2023/03/10 07:14:35;;;;;;;4.32;1.40;;;;;;;-0.29;100.00;99531.53;5062009;28;20044;-85
2023/03/10 07:17:02;;;;;;;4.18;1.48;;;;;;;-0.44;100.00;99506.88;5066170;28;20052;-85
2023/03/10 07:19:29;;;;;;;6.63;1.90;;;;;;;-0.49;100.00;99493.22;5070197;28;20093;-86
2023/03/10 07:21:56;;;;;;;4.90;1.40;;;;;;;0.13;100.00;99578.16;5061533;28;20052;-87
2023/03/10 07:24:23;;;;;;;4.10;1.73;;;;;;;0.03;100.00;99550.00;5075865;28;20063;-87
2023/03/10 07:26:50;;;;;;;3.97;1.40;;;;;;;-0.11;100.00;99533.00;5088412;28;20055;-89
2023/03/10 07:29:16;;;;;;;4.65;1.42;;;;;;;0.00;100.00;99545.75;5071601;28;20040;-87
2023/03/10 07:31:44;;;;;;;4.60;1.40;;;;;;;0.16;100.00;99546.38;5063393;28;20052;-86
2023/03/10 07:34:11;;;;;;;2.95;1.40;;;;;;;0.30;100.00;99565.06;5071430;28;21175;-87
2023/03/10 07:36:37;;;;;;;5.75;2.65;;;;;;;0.15;100.00;99550.66;5068816;28;20048;-87
2023/03/10 07:39:04;;;;;;;4.32;1.35;;;;;;;0.20;100.00;99552.34;5070331;28;20051;-87
2023/03/10 07:41:31;;;;;;;4.70;1.50;;;;;;;0.94;100.00;99564.94;5065548;28;20044;-87
2023/03/10 07:43:58;;;;;;;2.85;1.48;;;;;;;1.39;100.00;99580.44;5065517;28;20474;-87
2023/03/10 07:46:25;;;;;;;6.93;2.17;;;;;;;1.81;100.00;99557.28;5076100;28;20059;-87
2023/03/10 07:48:52;;;;;;;9.07;1.83;;;;;;;1.80;100.00;99589.09;5076342;28;20076;-87
2023/03/10 07:51:19;;;;;;;2.55;1.20;;;;;;;1.39;100.00;99585.59;5059345;28;20052;-87
2023/03/10 07:53:46;;;;;;;7.32;1.40;;;;;;;1.30;100.00;99571.16;5055800;28;20052;-87
2023/03/10 07:56:13;;;;;;;4.65;1.40;;;;;;;1.48;100.00;99618.13;5068494;28;20078;-87
2023/03/10 07:58:40;;;;;;;2.40;1.17;;;;;;;1.51;100.00;99587.97;5076363;28;20066;-87
2023/03/10 08:01:14;;;;;;;6.35;1.30;;;;;;;2.15;100.00;99615.94;5076039;28;20051;-87
2023/03/10 08:03:41;;;;;;;5.30;1.50;;;;;;;2.32;100.00;99618.19;5062020;28;20048;-88
2023/03/10 08:06:08;;;;;;;5.43;1.50;;;;;;;2.30;100.00;99624.25;5089094;28;20075;-88
2023/03/10 08:08:35;;;;;;;6.78;1.50;;;;;;;2.62;100.00;99577.88;5069072;28;20044;-88
2023/03/10 08:11:09;;;;;;;4.72;1.30;;;;;;;2.92;100.00;99636.63;5074103;28;20045;-87
2023/03/10 08:13:37;;;;;;;4.82;1.30;;;;;;;3.04;100.00;99626.00;5070035;28;20108;-88
2023/03/10 08:16:04;;;;;;;5.13;1.50;;;;;;;3.26;100.00;99635.81;5056675;28;20067;-88
2023/03/10 08:18:31;;;;;;;3.08;1.23;;;;;;;3.42;100.00;99639.72;5056511;28;20040;-88
2023/03/10 08:21:02;;;;;;;5.07;1.50;;;;;;;2.76;100.00;99620.63;5074592;28;20052;-87
2023/03/10 08:23:29;;;;;;;7.13;1.80;;;;;;;2.85;100.00;99621.28;5084099;28;20054;-87
2023/03/10 08:26:03;;;;;;;6.47;2.03;;;;;;;3.28;100.00;99657.34;5058123;28;20055;-88
2023/03/10 08:28:31;;;;;;;3.00;1.20;;;;;;;3.44;100.00;99669.00;5075708;28;20040;-88
2023/03/10 08:30:58;;;;;;;4.00;1.48;;;;;;;3.32;100.00;99658.94;5062406;28;20052;-87
2023/03/10 08:33:31;;;;;;;3.58;1.25;;;;;;;3.04;100.00;99651.84;5067343;28;20105;-87
2023/03/10 08:36:19;;;;;;;4.00;1.48;;;;;;;3.51;100.00;99672.28;5072095;28;20104;-87
2023/03/10 08:38:47;;;;;;;2.53;1.25;;;;;;;3.70;100.00;99686.44;5063402;28;20040;-88
2023/03/10 08:41:36;;;;;;;5.78;1.55;;;;;;;3.86;100.00;99678.25;5069019;28;20093;-88
2023/03/10 08:44:04;;;;;;;4.28;1.40;;;;;;;4.28;100.00;99683.13;5055754;28;20105;-87
2023/03/10 08:46:31;;;;;;;4.07;1.40;;;;;;;4.29;100.00;99669.31;5086826;28;20478;-87
2023/03/10 08:48:59;;;;;;;5.90;1.40;;;;;;;4.26;100.00;99672.81;5067318;28;20119;-88
2023/03/10 08:51:27;;;;;;;7.47;1.38;;;;;;;3.74;100.00;99676.84;5060456;28;20053;-87
2023/03/10 08:53:54;;;;;;;11.50;1.65;;;;;;;4.13;100.00;99690.44;5073425;28;20490;-87
2023/03/10 08:56:21;;;;;;;4.68;1.50;;;;;;;4.15;100.00;99700.78;5061819;28;20056;-87
2023/03/10 08:58:49;;;;;;;7.47;1.52;;;;;;;3.91;100.00;99692.78;5057124;28;20048;-87
2023/03/10 09:01:16;;;;;;;3.30;1.30;;;;;;;4.16;100.00;99692.97;5056217;28;20124;-87
2023/03/10 09:03:44;;;;;;;6.03;2.35;;;;;;;3.48;100.00;99675.78;5069572;28;20062;-87
2023/03/10 09:06:12;;;;;;;7.78;2.58;;;;;;;3.37;100.00;99657.09;5073424;28;20481;-88
2023/03/10 09:08:40;;;;;;;6.82;1.70;;;;;;;3.37;100.00;99673.47;5085369;28;20048;-88
2023/03/10 09:11:08;;;;;;;10.93;1.67;;;;;;;3.79;100.00;99670.66;5073921;28;20055;-87
2023/03/10 09:13:35;;;;;;;10.23;2.05;;;;;;;2.95;100.00;99655.50;5073410;28;20048;-88
2023/03/10 09:16:02;;;;;;;6.05;1.50;;;;;;;3.67;100.00;99681.34;5064248;28;20122;-87
2023/03/10 09:18:29;;;;;;;8.15;1.60;;;;;;;3.36;100.00;99682.09;5057287;28;20041;-88
2023/03/10 09:20:56;;;;;;;3.33;1.40;;;;;;;3.27;100.00;99694.44;5070310;28;20044;-88
2023/03/10 09:23:23;;;;;;;9.18;1.70;;;;;;;3.14;100.00;99684.38;5064182;28;20378;-87
2023/03/10 09:25:50;;;;;;;4.70;1.65;;;;;;;3.14;100.00;99663.69;5071365;28;20484;-87
2023/03/10 09:28:16;;;;;;;7.00;1.40;;;;;;;3.27;100.00;99678.91;5080675;28;20397;-87
2023/03/10 09:30:44;;;;;;;7.18;1.60;;;;;;;3.84;100.00;99687.81;5068884;28;20749;-87
2023/03/10 09:33:17;;;;;;;6.20;1.30;;;;;;;3.54;100.00;99691.16;5074594;28;20074;-87
2023/03/10 09:35:44;;;;;;;5.70;1.40;;;;;;;3.89;100.00;99701.47;5074533;28;20055;-87
2023/03/10 09:38:28;;;;;;;4.72;1.48;;;;;;;3.58;100.00;99669.47;5070373;28;20408;-87
2023/03/10 09:41:29;;;;;;;9.85;1.58;;;;;;;3.65;100.00;99721.94;5065151;28;20050;-87
2023/03/10 09:44:18;;;;;;;4.82;1.55;;;;;;;3.88;100.00;99716.19;5080867;28;20383;-87
2023/03/10 09:47:02;;;;;;;4.53;1.35;;;;;;;3.75;100.00;99714.78;5064496;28;20055;-87
2023/03/10 09:49:36;;;;;;;9.30;1.70;;;;;;;3.80;100.00;99689.63;5067017;28;20134;-87
2023/03/10 09:52:15;;;;;;;6.53;1.45;;;;;;;4.18;100.00;99724.03;5074106;28;20560;-86
2023/03/10 09:54:59;;;;;;;5.85;1.52;;;;;;;3.89;100.00;99699.72;5073145;28;20052;-86
2023/03/10 09:57:28;;;;;;;13.15;1.95;;;;;;;3.63;100.00;99715.09;5073196;28;20052;-86
2023/03/10 10:00:01;;;;;;;5.85;1.92;;;;;;;3.98;100.00;99716.75;5072111;28;20048;-87
2023/03/10 10:02:33;;;;;;;;;;;;;;;3.56;100.00;99735.09;5067768;28;20123;-87
2023/03/10 10:05:05;;;;;;;8.60;1.65;;;;;;;3.48;100.00;99721.53;5070330;28;19920;-86
2023/03/10 10:07:43;;;;;;;9.23;1.63;;;;;;;3.57;100.00;99718.69;5058444;28;20049;-87
2023/03/10 10:10:26;;;;;;;5.05;1.40;;;;;;;4.19;100.00;99728.28;5058539;28;20127;-87
2023/03/10 10:12:54;;;;;;;9.05;1.58;;;;;;;4.24;100.00;99731.59;5075618;28;20060;-86
2023/03/10 10:15:24;;;;;;;7.13;1.40;;;;;;;3.81;100.00;99712.06;5065611;28;20048;-87
2023/03/10 10:18:04;;;;;;;6.70;2.17;;;;;;;4.03;100.00;99747.75;5065848;28;20051;-87
2023/03/10 10:20:49;;;;;;;10.90;1.63;;;;;;;4.40;100.00;99746.75;5073418;28;20105;-87
2023/03/10 10:23:23;;;;;;;5.03;1.52;;;;;;;3.58;100.00;99710.06;5076059;28;20048;-87
2023/03/10 10:25:50;;;;;;;4.72;1.52;;;;;;;3.75;100.00;99753.63;5065468;28;20052;-88
2023/03/10 10:28:24;;;;;;;6.35;2.05;;;;;;;3.95;100.00;99742.78;5070112;28;20052;-87
2023/03/10 10:30:51;;;;;;;3.65;1.35;;;;;;;3.87;100.00;99744.69;5076496;28;20056;-87
2023/03/10 10:33:18;;;;;;;9.10;1.60;;;;;;;4.18;100.00;99711.06;5064375;28;20387;-87
2023/03/10 10:36:00;;;;;;;9.38;1.80;;;;;;;4.22;100.00;99728.22;5070624;28;20051;-87
2023/03/10 10:38:30;;;;;;;12.82;1.75;;;;;;;4.13;98.68;99744.00;5070339;28;20451;-87
2023/03/10 10:41:18;;;;;;;5.55;1.60;;;;;;;4.26;100.00;99739.34;5075240;28;20060;-87
2023/03/10 10:43:45;;;;;;;6.18;1.58;;;;;;;4.06;99.37;99755.44;5075891;28;20044;-88
2023/03/10 10:46:16;;;;;;;9.77;2.22;;;;;;;4.31;97.33;99740.91;5073830;28;20109;-87
2023/03/10 10:48:46;;;;;;;8.70;2.10;;;;;;;4.60;95.77;99764.31;5071306;28;20114;-87
2023/03/10 10:51:28;;;;;;;11.13;1.85;;;;;;;4.64;94.04;99781.47;5071536;28;20442;-86
2023/03/10 10:54:20;;;;;;;5.35;1.23;;;;;;;4.48;93.82;99768.09;5069250;28;20541;-87
2023/03/10 10:56:52;;;;;;;10.38;1.95;;;;;;;4.50;92.34;99771.50;5076015;28;20048;-86
2023/03/10 10:59:21;;;;;;;9.27;1.63;;;;;;;4.34;91.20;99766.75;5066864;28;20179;-87
2023/03/10 11:02:03;;;;;;;9.40;1.70;;;;;;;4.20;93.02;99722.22;5067478;28;20048;-86
2023/03/10 11:04:45;;;;;;;20.27;3.13;;;;;;;4.58;91.34;99748.78;5067003;28;20059;-87
2023/03/10 11:07:18;;;;;;;23.70;2.58;;;;;;;4.63;87.76;99770.25;5073791;28;20048;-87
2023/03/10 11:09:46;;;;;;;13.50;1.98;;;;;;;4.46;86.99;99738.78;5068926;28;20471;-86
2023/03/10 11:12:31;;;;;;;15.25;3.25;;;;;;;4.61;89.52;99768.63;5090856;28;20055;-87
2023/03/10 11:15:24;;;;;;;6.10;1.40;;;;;;;4.47;87.70;99779.38;5065066;28;20052;-86
2023/03/10 11:17:51;;;;;;;4.93;1.38;;;;;;;4.24;85.99;99785.19;5062707;28;20132;-87
2023/03/10 11:20:39;;;;;;;5.25;1.33;;;;;;;4.49;86.38;99780.16;5064057;28;20048;-87
2023/03/10 11:23:28;;;;;;;14.23;2.13;;;;;;;4.69;84.67;99777.88;5056347;28;20048;-86
2023/03/10 11:26:19;;;;;;;9.55;1.95;;;;;;;4.67;85.00;99782.22;5070816;28;20044;-86
2023/03/10 11:28:55;;;;;;;11.73;2.00;;;;;;;5.00;85.08;99739.81;5059120;28;20045;-87
2023/03/10 11:31:48;;;;;;;1.73;1.00;;;;;;;5.13;86.98;99773.13;5063955;28;20055;-86
2023/03/10 11:34:24;;;;;;;4.25;1.85;;;;;;;4.88;84.63;99767.78;5059637;28;20060;-86
2023/03/10 11:36:59;;;;;;;5.47;1.40;;;;;;;5.00;84.51;99760.56;5066706;28;20054;-86
2023/03/10 11:40:06;;;;;;;17.73;1.83;;;;;;;5.01;82.75;99744.09;5062780;28;20047;-87
2023/03/10 11:42:48;;;;;;;4.28;1.40;;;;;;;5.32;82.77;99756.97;5075351;28;20044;-86
2023/03/10 11:45:33;;;;;;;11.90;1.75;;;;;;;5.44;82.43;99709.84;5076186;28;20730;-86
2023/03/10 11:48:06;;;;;;;3.97;1.30;;;;;;;5.29;80.12;99762.25;5076710;28;20048;-86